Flight Track Log - Related Links

Times and Time Zones

All times are in EDT time to prevent confusion due to time zone crossing. See the AWE1821 flight status page for this flight to view local times or setup timezone preferences in your user account.

Time Position Orientation Groundspeed Altitude Reporting Facility
EDT Latitude Longitude Course Direction KTS MPH feet Rate Location/Type
Thu 09:48:59 AM 39.8833 -75.2167 270° West 165 190 900  Level Philadelphia TRACON
Thu 09:49:41 AM 39.9000 -75.1667 67° East 176 203 2,000 1,765 Climbing Philadelphia TRACON
Thu 09:50:41 AM 39.9167 -75.1000 72° East 229 264 3,900 2,050 Climbing Philadelphia TRACON
Thu 09:51:00 AM 39.8349 -75.6454 247° West  Level FlightAware Approximate
Thu 09:51:41 AM 39.9667 -75.1000 360° North 247 284 6,100  Level Philadelphia TRACON
Thu 09:52:00 AM 39.8329 -75.7858 258° West  Level FlightAware Approximate
Thu 09:52:41 AM 39.9667 -75.1833 270° West 262 302 8,300  Level Philadelphia TRACON
Thu 09:53:00 AM 39.8100 -75.9234 258° West  Level FlightAware Approximate
Thu 09:53:41 AM 39.9500 -75.2833 258° West 290 334 10,000  Level Philadelphia TRACON
Thu 09:54:00 AM 39.8000 -76.0628 270° West  Level FlightAware Approximate
Thu 09:54:47 AM 39.9167 -75.4000 250° West 296 341 10,000  Level Philadelphia TRACON
Thu 09:55:07 AM 39.9131 -75.4286 261° West 299 344 10,000  Level New York Center
Thu 09:56:04 AM 39.8947 -75.5247 256° West 299 344 10,000  Level New York Center
Thu 09:57:06 AM 39.8714 -75.6342 255° West 311 358 10,000 639 Level New York Center
Thu 09:58:06 AM 39.8528 -75.7303 256° West 311 358 11,300 1,850 Climbing New York Center
Thu 09:59:06 AM 39.8311 -75.8475 257° West 311 358 13,700 2,200 Climbing New York Center
Thu 10:00:06 AM 39.8203 -75.9522 262° West 317 365 15,700 2,231 Climbing New York Center
Thu 10:01:07 AM 39.7981 -76.0803 257° West 333 383 18,200 2,139 Climbing New York Center
Thu 10:03:28 AM 39.6469 -76.3244 231° Southwest 379 436 22,900 1,901 Climbing Washington Center
Thu 10:04:29 AM 39.5794 -76.4289 230° Southwest 385 443 24,600 1,623 Climbing Washington Center
Thu 10:05:30 AM 39.5119 -76.5303 229° Southwest 397 457 26,200 1,574 Climbing Washington Center
Thu 10:06:31 AM 39.4403 -76.6397 230° Southwest 402 463 27,800 1,412 Climbing Washington Center
Thu 10:07:29 AM 39.3683 -76.7539 231° Southwest 402 463 29,000 1,412 Climbing Washington Center
Thu 10:08:30 AM 39.2944 -76.8656 229° Southwest 402 463 30,600 1,488 Climbing Washington Center
Thu 10:09:30 AM 39.2222 -76.9794 231° Southwest 407 468 32,000 1,190 Climbing Washington Center
Thu 10:10:31 AM 39.1500 -77.0906 230° Southwest 407 468 33,000 1,041 Climbing Washington Center
Thu 10:11:31 AM 39.0778 -77.2039 231° Southwest 407 468 34,100 1,169 Climbing Washington Center
Thu 10:12:29 AM 39.0075 -77.3119 230° Southwest 407 468 35,300 958 Climbing Washington Center
Thu 10:13:30 AM 38.9286 -77.4328 230° Southwest 407 468 36,000 347 Climbing Washington Center
Thu 10:14:30 AM 38.8622 -77.5325 229° Southwest 407 468 36,000  Level Washington Center
Thu 10:15:31 AM 38.7767 -77.6606 229° Southwest 419 482 36,000  Level Washington Center
Thu 10:16:29 AM 38.6953 -77.7833 230° Southwest 435 501 36,000  Level Washington Center
Thu 10:17:30 AM 38.6181 -77.9061 231° Southwest 447 514 36,000  Level Washington Center
Thu 10:18:31 AM 38.5469 -78.0258 233° Southwest 442 509 36,000  Level Washington Center
Thu 10:19:29 AM 38.4756 -78.1483 233° Southwest 436 502 36,000  Level Washington Center
Thu 10:20:30 AM 38.4039 -78.2731 234° Southwest 436 502 36,000  Level Washington Center
Thu 10:21:30 AM 38.3281 -78.3972 232° Southwest 436 502 36,000  Level Washington Center
Thu 10:22:30 AM 38.2564 -78.5217 234° Southwest 436 502 36,000  Level Washington Center
Thu 10:23:31 AM 38.1867 -78.6456 234° Southwest 436 502 36,000  Level Washington Center
Thu 10:24:28 AM 38.1189 -78.7589 233° Southwest 448 516 36,000  Level Washington Center
Thu 10:25:29 AM 38.0450 -78.8772 232° Southwest 448 516 36,000  Level Washington Center
Thu 10:26:30 AM 37.9706 -79.0003 233° Southwest 443 510 36,000  Level Washington Center
Thu 10:27:31 AM 37.8917 -79.1336 233° Southwest 443 510 36,000  Level Washington Center
Thu 10:28:29 AM 37.8294 -79.2594 238° Southwest 437 503 36,000  Level Washington Center
Thu 10:29:30 AM 37.7647 -79.3903 238° Southwest 432 497 36,000  Level Washington Center
Thu 10:30:30 AM 37.7050 -79.5028 236° Southwest 432 497 36,000  Level Washington Center
Thu 10:31:31 AM 37.6378 -79.6411 238° Southwest 426 490 36,000  Level Washington Center
Thu 10:32:29 AM 37.5794 -79.7558 237° Southwest 426 490 36,000  Level Washington Center
Thu 10:34:22 AM 37.4556 -79.9975 237° Southwest 462 532 36,000  Level Atlanta Center
Thu 10:35:22 AM 37.3928 -80.1183 237° Southwest 448 516 36,000  Level Atlanta Center
Thu 10:36:22 AM 37.3300 -80.2442 238° Southwest 435 501 36,000  Level Atlanta Center
Thu 10:37:22 AM 37.2589 -80.3778 236° Southwest 427 491 36,000  Level Atlanta Center
Thu 10:38:22 AM 37.1958 -80.5006 237° Southwest 427 491 36,000  Level Atlanta Center
Thu 10:39:22 AM 37.1306 -80.6258 237° Southwest 427 491 36,000  Level Atlanta Center
Thu 10:40:22 AM 37.0714 -80.7481 239° Southwest 427 491 36,000  Level Atlanta Center
Thu 10:41:22 AM 37.0308 -80.8694 247° West 427 491 36,000  Level Atlanta Center
Thu 10:42:22 AM 36.9819 -80.9986 245° Southwest 417 480 36,000  Level Atlanta Center
Thu 10:43:22 AM 36.9331 -81.1331 246° West 412 474 36,000  Level Atlanta Center
Thu 10:44:22 AM 36.8842 -81.2750 247° West 412 474 36,000  Level Atlanta Center
Thu 10:45:22 AM 36.8372 -81.4061 246° West 412 474 36,000  Level Atlanta Center
Thu 10:46:22 AM 36.7836 -81.5350 243° Southwest 412 474 36,000  Level Atlanta Center
Thu 10:47:22 AM 36.7294 -81.6481 239° Southwest 419 482 36,000  Level Atlanta Center
Thu 10:48:22 AM 36.6631 -81.7692 236° Southwest 431 496 36,000  Level Atlanta Center
Thu 10:49:22 AM 36.5942 -81.8925 235° Southwest 431 496 36,000  Level Atlanta Center
Thu 10:50:22 AM 36.5256 -82.0158 235° Southwest 431 496 36,000  Level Atlanta Center
Thu 10:51:22 AM 36.4606 -82.1364 236° Southwest 431 496 36,000  Level Atlanta Center
Thu 10:52:22 AM 36.3917 -82.2617 236° Southwest 436 502 36,000  Level Atlanta Center
Thu 10:53:22 AM 36.3244 -82.3844 236° Southwest 436 502 36,000  Level Atlanta Center
Thu 10:54:22 AM 36.2553 -82.5094 236° Southwest 441 507 36,000  Level Atlanta Center
Thu 10:55:22 AM 36.1817 -82.6444 236° Southwest 441 507 36,000  Level Atlanta Center
Thu 10:56:22 AM 36.1100 -82.7667 234° Southwest 441 507 36,000  Level Atlanta Center
Thu 10:57:22 AM 36.0444 -82.8908 237° Southwest 446 513 36,000  Level Atlanta Center
Thu 10:58:22 AM 35.9725 -83.0125 234° Southwest 446 513 36,000  Level Atlanta Center
Thu 10:59:22 AM 35.9069 -83.1389 237° Southwest 446 513 36,000  Level Atlanta Center
Thu 11:00:22 AM 35.8367 -83.2600 234° Southwest 446 513 36,000  Level Atlanta Center
Thu 11:01:22 AM 35.7686 -83.3811 235° Southwest 446 513 36,000  Level Atlanta Center
Thu 11:02:22 AM 35.6983 -83.5044 235° Southwest 446 513 36,000  Level Atlanta Center
Thu 11:03:22 AM 35.6300 -83.6247 235° Southwest 446 513 36,000  Level Atlanta Center
Thu 11:04:22 AM 35.5614 -83.7478 236° Southwest 446 513 36,000  Level Atlanta Center
Thu 11:05:22 AM 35.4886 -83.8703 234° Southwest 446 513 36,000  Level Atlanta Center
Thu 11:06:22 AM 35.4178 -83.9956 235° Southwest 446 513 36,000  Level Atlanta Center
Thu 11:07:22 AM 35.3489 -84.1153 235° Southwest 446 513 36,000  Level Atlanta Center
Thu 11:08:22 AM 35.2758 -84.2372 234° Southwest 446 513 36,000  Level Atlanta Center
Thu 11:09:22 AM 35.2150 -84.3464 236° Southwest 446 513 36,000  Level Atlanta Center
Thu 11:10:22 AM 35.1439 -84.4681 234° Southwest 446 513 36,000  Level Atlanta Center
Thu 11:11:22 AM 35.0703 -84.5919 234° Southwest 446 513 36,000  Level Atlanta Center
Thu 11:12:22 AM 35.0028 -84.7108 235° Southwest 446 513 36,000  Level Atlanta Center
Thu 11:13:22 AM 34.9292 -84.8317 233° Southwest 446 513 36,000  Level Atlanta Center
Thu 11:14:22 AM 34.8575 -84.9500 234° Southwest 446 513 36,000  Level Atlanta Center
Thu 11:15:22 AM 34.7897 -85.0681 235° Southwest 441 507 36,000  Level Atlanta Center
Thu 11:16:22 AM 34.7178 -85.1861 233° Southwest 441 507 36,000  Level Atlanta Center
Thu 11:17:22 AM 34.6478 -85.3039 234° Southwest 446 513 36,000  Level Atlanta Center
Thu 11:18:22 AM 34.5775 -85.4214 234° Southwest 446 513 36,000  Level Atlanta Center
Thu 11:19:22 AM 34.5072 -85.5386 234° Southwest 441 507 36,000  Level Atlanta Center
Thu 11:20:22 AM 34.4369 -85.6558 234° Southwest 441 507 36,000  Level Atlanta Center
Thu 11:21:22 AM 34.3642 -85.7778 234° Southwest 446 513 36,000  Level Atlanta Center
Thu 11:22:22 AM 34.2875 -85.8967 232° Southwest 438 504 36,000  Level Atlanta Center
Thu 11:23:22 AM 34.2167 -86.0158 234° Southwest 438 504 36,000  Level Atlanta Center
Thu 11:24:22 AM 34.1439 -86.1319 233° Southwest 438 504 36,000  Level Atlanta Center
Thu 11:25:22 AM 34.0750 -86.2483 234° Southwest 438 504 36,000  Level Atlanta Center
Thu 11:26:22 AM 34.0019 -86.3642 233° Southwest 438 504 36,000  Level Atlanta Center
Thu 11:27:22 AM 33.9286 -86.4797 233° Southwest 433 498 36,000  Level Atlanta Center
Thu 11:28:22 AM 33.8597 -86.5931 234° Southwest 433 498 36,000  Level Atlanta Center
Thu 11:29:22 AM 33.7861 -86.7083 232° Southwest 433 498 36,000  Level Atlanta Center
Thu 11:30:22 AM 33.7233 -86.8086 233° Southwest 433 498 36,000  Level Atlanta Center
Thu 11:31:22 AM 33.6581 -86.9264 236° Southwest 433 498 36,000  Level Atlanta Center
Thu 11:32:22 AM 33.6153 -87.0547 248° West 422 486 36,000  Level Atlanta Center
Thu 11:34:32 AM 33.5200 -87.3322 248° West 417 480 36,000  Level Memphis Center
Thu 11:35:32 AM 33.4794 -87.4608 249° West 417 480 36,000 300 Level Memphis Center
Thu 11:36:32 AM 33.4322 -87.5867 246° West 417 480 36,600 1,000 Climbing Memphis Center
Thu 11:37:32 AM 33.3889 -87.7125 248° West 417 480 38,000 700 Climbing Memphis Center
Thu 11:38:32 AM 33.3475 -87.8331 248° West 411 473 38,000  Level Memphis Center
Thu 11:39:32 AM 33.3061 -87.9536 248° West 400 460 38,000  Level Memphis Center
Thu 11:40:32 AM 33.2647 -88.0764 248° West 400 460 38,000  Level Memphis Center
Thu 11:41:32 AM 33.2192 -88.2117 248° West 400 460 38,000  Level Memphis Center
Thu 11:42:32 AM 33.1753 -88.3319 246° West 395 455 38,000  Level Memphis Center
Thu 11:43:32 AM 33.1333 -88.4544 248° West 395 455 38,000  Level Memphis Center
Thu 11:44:32 AM 33.0892 -88.5769 247° West 395 455 38,000  Level Memphis Center
Thu 11:45:32 AM 33.0469 -88.7017 248° West 395 455 38,000  Level Memphis Center
Thu 11:46:32 AM 33.0025 -88.8189 246° West 395 455 38,000  Level Memphis Center
Thu 11:47:32 AM 32.9603 -88.9386 247° West 395 455 38,000  Level Memphis Center
Thu 11:48:32 AM 32.9178 -89.0556 247° West 395 455 38,000  Level Memphis Center
Thu 11:49:32 AM 32.8750 -89.1725 246° West 395 455 38,000  Level Memphis Center
Thu 11:50:32 AM 32.8342 -89.2892 247° West 395 455 38,000  Level Memphis Center
Thu 11:51:32 AM 32.7914 -89.4008 246° West 390 449 38,000  Level Memphis Center
Thu 11:52:32 AM 32.7506 -89.5100 246° West 379 436 38,000  Level Memphis Center
Thu 11:53:32 AM 32.7094 -89.6239 247° West 379 436 38,000  Level Memphis Center
Thu 11:54:32 AM 32.6661 -89.7403 246° West 379 436 38,000  Level Memphis Center
Thu 11:55:32 AM 32.6228 -89.8517 245° Southwest 379 436 38,000  Level Memphis Center
Thu 11:56:32 AM 32.5814 -89.9678 247° West 379 436 38,000  Level Memphis Center
Thu 11:57:32 AM 32.5381 -90.0814 246° West 379 436 38,000  Level Memphis Center
Thu 11:58:32 AM 32.4944 -90.1922 245° Southwest 379 436 38,000  Level Memphis Center
Thu 11:59:32 AM 32.4361 -90.3006 237° Southwest 385 443 38,000  Level Memphis Center
Thu 12:00:32 PM 32.3817 -90.4089 239° Southwest 396 456 38,000  Level Memphis Center
Thu 12:02:38 PM 32.2714 -90.6214 239° Southwest 385 443 38,000  Level Houston Center
Thu 12:03:40 PM 32.2156 -90.7253 238° Southwest 380 437 38,000  Level Houston Center
Thu 12:04:42 PM 32.1592 -90.8350 239° Southwest 382 440 38,000  Level Houston Center
Thu 12:05:44 PM 32.0906 -90.9617 237° Southwest 385 443 38,000  Level Houston Center
Thu 12:06:46 PM 32.0347 -91.0681 238° Southwest 383 441 38,000  Level Houston Center
Thu 12:07:48 PM 31.9775 -91.1736 237° Southwest 384 442 38,000  Level Houston Center
Thu 12:08:51 PM 31.9214 -91.2786 238° Southwest 382 440 38,000  Level Houston Center
Thu 12:09:53 PM 31.8644 -91.3844 238° Southwest 383 441 38,000  Level Houston Center
Thu 12:10:55 PM 31.8092 -91.4889 238° Southwest 379 436 38,000  Level Houston Center
Thu 12:11:57 PM 31.7414 -91.6136 237° Southwest 379 436 38,000  Level Houston Center
Thu 12:12:59 PM 31.6853 -91.7178 238° Southwest 379 436 38,000  Level Houston Center
Thu 12:14:01 PM 31.6292 -91.8225 238° Southwest 380 437 38,000  Level Houston Center
Thu 12:15:03 PM 31.5706 -91.9292 237° Southwest 390 449 38,000  Level Houston Center
Thu 12:16:06 PM 31.5125 -92.0356 237° Southwest 397 457 38,000  Level Houston Center
Thu 12:17:08 PM 31.4525 -92.1419 237° Southwest 394 453 38,000  Level Houston Center
Thu 12:18:10 PM 31.3828 -92.2697 237° Southwest 391 450 38,000  Level Houston Center
Thu 12:19:12 PM 31.3242 -92.3772 237° Southwest 393 452 38,000  Level Houston Center
Thu 12:20:14 PM 31.2636 -92.4853 237° Southwest 397 457 38,000  Level Houston Center
Thu 12:21:16 PM 31.2039 -92.5900 236° Southwest 391 450 38,000  Level Houston Center
Thu 12:22:18 PM 31.1481 -92.6953 238° Southwest 383 441 38,000 -96 Level Houston Center
Thu 12:23:21 PM 31.0789 -92.8178 237° Southwest 378 435 37,800 -528 Descending Houston Center
Thu 12:24:23 PM 31.0217 -92.9219 237° Southwest 382 440 36,900 -823 Descending Houston Center
Thu 12:25:25 PM 30.9628 -93.0261 237° Southwest 385 443 36,100 -823 Descending Houston Center
Thu 12:26:27 PM 30.9028 -93.1317 236° Southwest 389 448 35,200 -1,210 Descending Houston Center
Thu 12:27:29 PM 30.8425 -93.2381 237° Southwest 394 453 33,600 -2,081 Descending Houston Center
Thu 12:28:31 PM 30.7706 -93.3689 237° Southwest 401 461 30,900 -2,419 Descending Houston Center
Thu 12:29:33 PM 30.7072 -93.4789 236° Southwest 409 471 28,600 -2,208 Descending Houston Center
Thu 12:30:36 PM 30.6467 -93.5864 237° Southwest 405 466 26,300 -2,064 Descending Houston Center
Thu 12:31:38 PM 30.5881 -93.6881 236° Southwest 388 447 24,300 -1,984 Descending Houston Center
Thu 12:32:40 PM 30.5306 -93.7875 236° Southwest 378 435 22,200 -2,226 Descending Houston Center
Thu 12:33:42 PM 30.4622 -93.9078 237° Southwest 376 433 19,700 -2,177 Descending Houston Center
Thu 12:34:44 PM 30.4044 -94.0072 236° Southwest 377 434 17,700 -2,057 Descending Houston Center
Thu 12:35:27 PM 30.3597 -94.0864 237° Southwest 374 430 16,100 -2,032 Descending Houston Center
Thu 12:35:46 PM 30.3464 -94.1061 232° Southwest 374 430 15,600 -1,826 Descending Houston Center
Thu 12:36:59 PM 30.2753 -94.2308 237° Southwest 352 405 13,300 -1,645 Descending Houston Center
Thu 12:37:50 PM 30.2397 -94.2911 236° Southwest 344 396 12,200 -684 Descending Houston Center
Thu 12:38:53 PM 30.1919 -94.4061 244° Southwest 341 392 12,000 -96 Descending Houston Center
Thu 12:39:55 PM 30.1753 -94.5017 259° West 346 398 12,000 -339 Level Houston Center
Thu 12:40:57 PM 30.1533 -94.6289 259° West 337 388 11,300 -960 Descending Houston Center
Thu 12:42:00 PM 30.1353 -94.7306 258° West 287 330 10,000 -1,442 Descending Houston Center
Thu 12:43:06 PM 30.1169 -94.8247 257° West 273 314 8,200 -1,463 Descending Houston Center
Thu 12:44:03 PM 30.1075 -94.8931 261° West 272 313 7,000 -1,073 Descending Houston Center
Thu 12:45:09 PM 30.1061 -94.9975 269° West 262 302 6,000 -472 Descending Houston Center
Thu 12:46:10 PM 30.1061 -95.0869 270° West 268 308 6,000  Level Houston Center
Thu 12:47:06 PM 30.1047 -95.1644 269° West 266 306 6,000  Level Houston Center
Thu 12:48:12 PM 30.1064 -95.2483 271° West 266 306 6,000  Level Houston Center
Thu 12:49:14 PM 30.1067 -95.3453 270° West 268 308 6,000 -305 Level Houston Center
Thu 12:50:10 PM 30.1056 -95.4253 269° West 267 307 5,400 -1,171 Descending Houston Center
Thu 12:51:17 PM 30.1061 -95.5217 270° West 261 300 3,600 -1,180 Descending Houston Center
Thu 12:52:12 PM 30.1067 -95.5989 270° West 260 299 3,000 -295 Descending Houston Center
Thu 12:53:19 PM 30.0933 -95.6850 260° West 243 280 3,000  Level Houston Center
Thu 12:54:15 PM 30.0444 -95.7028 197° South 194 223 3,000  Level Houston Center
Thu 12:55:16 PM 30.0056 -95.6664 141° Southeast 212 244 3,000  Level Houston Center
Thu 12:56:23 PM 30.0069 -95.5889 89° East 221 254 3,000 -94 Level Houston Center
Thu 12:57:24 PM 30.0069 -95.5189 90° East 207 238 2,800 -590 Descending Houston Center
Thu 12:58:25 PM 30.0058 -95.4589 91° East 182 209 1,800 -984 Descending Houston Center

Login

Don't have an account? Register now (free) for customized features, flight alerts, and more!